createdAt,value
2023-02-03T00:00:53.583Z,98726.34
2023-02-03T00:03:22.929Z,98720.94
2023-02-03T00:05:52.198Z,98721.75
2023-02-03T00:08:23.515Z,98721.88
2023-02-03T00:10:53.207Z,98725.13
2023-02-03T00:13:22.960Z,98734.47
2023-02-03T00:15:52.472Z,98732.88
2023-02-03T00:18:21.700Z,98739.63
2023-02-03T00:20:50.933Z,98735.72
2023-02-03T00:23:20.416Z,98734.50
2023-02-03T00:25:49.728Z,98739.66
2023-02-03T00:28:19.020Z,98734.22
2023-02-03T00:30:48.275Z,98747.78
2023-02-03T00:33:17.411Z,98759.84
2023-02-03T00:35:46.578Z,98752.94
2023-02-03T00:38:15.823Z,98767.59
2023-02-03T00:40:53.628Z,98774.13
2023-02-03T00:43:22.885Z,98768.00
2023-02-03T00:45:52.055Z,98781.03
2023-02-03T00:48:21.424Z,98789.72
2023-02-03T00:50:50.592Z,98793.09
2023-02-03T00:53:20.278Z,98788.06
2023-02-03T00:55:49.474Z,98786.84
2023-02-03T00:58:18.752Z,98786.31
2023-02-03T01:00:47.940Z,98790.78
2023-02-03T01:03:17.301Z,98791.88
2023-02-03T01:05:46.594Z,98797.16
2023-02-03T01:08:15.777Z,98806.38
2023-02-03T01:10:45.116Z,98814.78
2023-02-03T01:13:14.440Z,98812.34
2023-02-03T01:15:48.305Z,98810.31
2023-02-03T01:18:17.600Z,98810.56
2023-02-03T01:20:46.753Z,98808.56
2023-02-03T01:23:15.901Z,98823.22
2023-02-03T01:25:45.053Z,98828.75
2023-02-03T01:28:14.543Z,98817.94
2023-02-03T01:30:43.867Z,98820.22
2023-02-03T01:33:14.286Z,98819.16
2023-02-03T01:35:43.500Z,98822.28
2023-02-03T01:38:13.170Z,98827.69
2023-02-03T01:40:45.211Z,98830.53
2023-02-03T01:43:37.942Z,98833.66
2023-02-03T01:46:26.320Z,98841.94
2023-02-03T01:49:09.997Z,98828.78
2023-02-03T01:51:43.111Z,98837.81
2023-02-03T01:54:20.903Z,98830.34
2023-02-03T01:56:59.425Z,98821.09
2023-02-03T01:59:31.689Z,98825.69
2023-02-03T02:02:03.593Z,98827.63
2023-02-03T02:04:50.012Z,98823.53
2023-02-03T02:07:19.423Z,98819.03
2023-02-03T02:09:49.657Z,98824.31
2023-02-03T02:12:18.906Z,98813.91
2023-02-03T02:14:48.814Z,98810.50
2023-02-03T02:17:40.105Z,98814.03
2023-02-03T02:20:48.042Z,98816.59
2023-02-03T02:24:14.826Z,98814.56
2023-02-03T02:27:06.043Z,98814.41
2023-02-03T02:29:56.571Z,98823.31
2023-02-03T02:33:09.894Z,98827.34
2023-02-03T02:36:19.991Z,98837.22
2023-02-03T02:39:19.892Z,98825.63
2023-02-03T02:42:31.751Z,98837.81
2023-02-03T02:45:26.576Z,98837.81
2023-02-03T02:48:13.305Z,98828.13
2023-02-03T02:50:46.622Z,98831.22
2023-02-03T02:53:19.020Z,98829.59
2023-02-03T02:55:49.232Z,98822.41
2023-02-03T02:58:21.752Z,98822.28
2023-02-03T03:00:51.671Z,98834.44
2023-02-03T03:03:24.672Z,98828.59
2023-02-03T03:06:17.232Z,98823.72
2023-02-03T03:09:01.295Z,98816.81
2023-02-03T03:11:39.824Z,98818.81
2023-02-03T03:14:12.972Z,98818.00
2023-02-03T03:16:56.134Z,98816.50
2023-02-03T03:19:34.717Z,98821.91
2023-02-03T03:22:09.139Z,98817.94
2023-02-03T03:24:48.881Z,98821.84
2023-02-03T03:27:30.342Z,98824.28
2023-02-03T03:30:14.284Z,98817.53
2023-02-03T03:32:44.296Z,98819.41
2023-02-03T03:35:13.729Z,98816.00
2023-02-03T03:37:58.468Z,98819.16
2023-02-03T03:40:37.621Z,98828.97
2023-02-03T03:43:22.047Z,98833.69
2023-02-03T03:46:05.136Z,98831.34
2023-02-03T03:49:05.492Z,98835.13
2023-02-03T03:51:40.787Z,98827.66
2023-02-03T03:54:15.935Z,98830.34
2023-02-03T03:57:15.155Z,98838.19
2023-02-03T03:59:49.227Z,98840.75
2023-02-03T04:02:21.234Z,98852.53
2023-02-03T04:04:52.113Z,98856.88
2023-02-03T04:07:21.352Z,98862.00
2023-02-03T04:09:50.589Z,98864.56
2023-02-03T04:12:24.414Z,98877.88
2023-02-03T04:14:53.662Z,98868.53
2023-02-03T04:17:22.972Z,98870.97
2023-02-03T04:19:52.223Z,98877.38
2023-02-03T04:22:21.381Z,98874.44
2023-02-03T04:24:50.555Z,98860.41
2023-02-03T04:27:19.848Z,98865.16
2023-02-03T04:29:50.718Z,98848.09
2023-02-03T04:32:20.171Z,98846.22
2023-02-03T04:34:49.449Z,98839.44
2023-02-03T04:37:18.699Z,98835.00
2023-02-03T04:39:47.896Z,98830.56
2023-02-03T04:42:17.058Z,98839.63
2023-02-03T04:44:46.252Z,98828.41
2023-02-03T04:47:16.838Z,98831.16
2023-02-03T04:49:46.706Z,98823.91
2023-02-03T04:52:16.203Z,98819.19
2023-02-03T04:54:45.417Z,98823.38
2023-02-03T04:57:14.623Z,98818.81
2023-02-03T04:59:43.864Z,98817.72
2023-02-03T05:02:13.096Z,98817.47
2023-02-03T05:04:42.251Z,98807.06
2023-02-03T05:07:11.384Z,98808.53
2023-02-03T05:09:40.613Z,98808.72
2023-02-03T05:12:09.759Z,98807.78
2023-02-03T05:14:38.957Z,98803.03
2023-02-03T05:17:08.178Z,98805.03
2023-02-03T05:19:37.335Z,98808.19
2023-02-03T05:22:06.525Z,98812.25
2023-02-03T05:24:35.670Z,98807.38
2023-02-03T05:27:04.824Z,98809.00
2023-02-03T05:29:34.007Z,98810.91
2023-02-03T05:32:03.608Z,98819.22
2023-02-03T05:34:32.904Z,98804.22
2023-02-03T05:37:03.577Z,98804.94
2023-02-03T05:39:33.068Z,98811.84
2023-02-03T05:42:03.403Z,98810.91
2023-02-03T05:44:32.680Z,98817.69
2023-02-03T05:47:01.901Z,98810.78
2023-02-03T05:49:31.218Z,98814.31
2023-02-03T05:52:00.419Z,98810.25
2023-02-03T05:54:29.755Z,98810.09
2023-02-03T05:56:58.952Z,98816.06
2023-02-03T05:59:28.188Z,98815.56
2023-02-03T06:01:57.328Z,98808.22
2023-02-03T06:04:26.591Z,98811.75
2023-02-03T06:06:55.720Z,98800.78
2023-02-03T06:09:24.927Z,98807.69
2023-02-03T06:11:54.132Z,98806.63
2023-02-03T06:14:23.350Z,98815.56
2023-02-03T06:16:52.619Z,98804.88
2023-02-03T06:19:21.781Z,98809.22
2023-02-03T06:21:50.931Z,98811.94
2023-02-03T06:24:20.178Z,98805.84
2023-02-03T06:26:49.391Z,98803.13
2023-02-03T06:29:18.678Z,98793.78
2023-02-03T06:31:48.151Z,98785.25
2023-02-03T06:34:17.485Z,98778.44
2023-02-03T06:36:48.459Z,98770.72
2023-02-03T06:39:17.864Z,98766.78
2023-02-03T06:41:47.083Z,98765.00
2023-02-03T06:44:16.263Z,98769.75
2023-02-03T06:46:45.418Z,98765.69
2023-02-03T06:49:14.604Z,98759.41
2023-02-03T06:51:45.589Z,98751.53
2023-02-03T06:54:15.404Z,98757.66
2023-02-03T06:56:44.981Z,98750.34
2023-02-03T06:59:14.348Z,98745.81
2023-02-03T07:01:43.516Z,98750.03
2023-02-03T07:04:12.726Z,98757.88
2023-02-03T07:06:41.881Z,98760.75
2023-02-03T07:09:11.072Z,98758.53
2023-02-03T07:11:40.387Z,98750.81
2023-02-03T07:14:09.582Z,98753.38
2023-02-03T07:16:38.757Z,98756.03
2023-02-03T07:19:07.949Z,98753.72
2023-02-03T07:21:37.176Z,98762.25
2023-02-03T07:24:06.645Z,98767.72
2023-02-03T07:26:35.835Z,98770.00
2023-02-03T07:29:05.498Z,98767.44
2023-02-03T07:31:35.834Z,98764.22
2023-02-03T07:34:06.484Z,98763.16
2023-02-03T07:36:35.784Z,98757.88
2023-02-03T07:39:05.168Z,98760.75
2023-02-03T07:41:34.451Z,98755.94
2023-02-03T07:44:03.901Z,98760.41
2023-02-03T07:46:33.136Z,98750.34
2023-02-03T07:49:04.454Z,98752.06
2023-02-03T07:51:33.758Z,98734.88
2023-02-03T07:54:02.991Z,98744.59
2023-02-03T07:56:32.821Z,98742.50
2023-02-03T07:59:02.213Z,98736.97
2023-02-03T08:01:32.200Z,98738.66
2023-02-03T08:04:02.167Z,98730.63
2023-02-03T08:06:31.665Z,98741.78
2023-02-03T08:09:00.820Z,98717.84
2023-02-03T08:11:30.014Z,98726.34
2023-02-03T08:13:59.243Z,98730.56
2023-02-03T08:16:28.421Z,98727.03
2023-02-03T08:18:58.365Z,98724.81
2023-02-03T08:21:27.586Z,98717.44
2023-02-03T08:23:56.757Z,98716.09
2023-02-03T08:26:26.006Z,98717.69
2023-02-03T08:28:55.273Z,98721.28
2023-02-03T08:31:24.651Z,98731.41
2023-02-03T08:34:15.475Z,98724.59
2023-02-03T08:36:44.679Z,98723.59
2023-02-03T08:39:14.025Z,98727.94
2023-02-03T08:41:43.273Z,98724.03
2023-02-03T08:44:14.422Z,98721.22
2023-02-03T08:46:44.237Z,98714.44
2023-02-03T08:49:13.473Z,98710.81
2023-02-03T08:51:44.358Z,98708.59
2023-02-03T08:54:15.139Z,98721.16
2023-02-03T08:56:44.574Z,98715.06
2023-02-03T08:59:15.251Z,98701.50
2023-02-03T09:01:45.964Z,98702.50
2023-02-03T09:04:19.353Z,98704.16
2023-02-03T09:06:48.909Z,98701.94
2023-02-03T09:09:18.337Z,98698.06
2023-02-03T09:11:47.970Z,98694.81
2023-02-03T09:14:17.298Z,98697.69
2023-02-03T09:16:46.628Z,98688.94
2023-02-03T09:19:15.871Z,98697.28
2023-02-03T09:21:46.605Z,98690.78
2023-02-03T09:24:18.921Z,98694.00
2023-02-03T09:26:48.275Z,98698.81
2023-02-03T09:29:18.039Z,98693.66
2023-02-03T09:31:52.929Z,98689.09
2023-02-03T09:34:23.013Z,98681.59
2023-02-03T09:36:52.533Z,98676.97
2023-02-03T09:39:21.877Z,98675.44
2023-02-03T09:42:28.754Z,98667.84
2023-02-03T09:45:28.799Z,98669.91
2023-02-03T09:48:10.264Z,98669.91
2023-02-03T09:50:44.213Z,98667.50
2023-02-03T09:53:45.272Z,98665.34
2023-02-03T09:56:41.360Z,98666.28
2023-02-03T09:59:10.755Z,98654.78
2023-02-03T10:01:57.587Z,98653.31
2023-02-03T10:04:43.858Z,98650.19
2023-02-03T10:07:44.227Z,98646.31
2023-02-03T10:10:21.954Z,98638.72
2023-02-03T10:13:13.913Z,98630.69
2023-02-03T10:16:08.055Z,98627.16
2023-02-03T10:18:46.026Z,98618.72
2023-02-03T10:21:31.974Z,98611.66
2023-02-03T10:24:06.811Z,98613.91
2023-02-03T10:26:38.624Z,98607.16
2023-02-03T10:29:37.431Z,98601.16
2023-02-03T10:32:11.975Z,98596.94
2023-02-03T10:34:47.266Z,98596.13
2023-02-03T10:37:38.263Z,98601.44
2023-02-03T10:40:17.132Z,98597.84
2023-02-03T10:43:07.776Z,98587.66
2023-02-03T10:45:39.139Z,98582.78
2023-02-03T10:48:18.672Z,98577.31
2023-02-03T10:50:50.501Z,98573.66
2023-02-03T10:53:25.033Z,98568.16
2023-02-03T10:56:11.486Z,98558.63
2023-02-03T10:58:52.577Z,98554.59
2023-02-03T11:01:28.924Z,98544.91
2023-02-03T11:04:06.001Z,98544.41
2023-02-03T11:06:36.752Z,98537.63
2023-02-03T11:09:31.280Z,98532.00
2023-02-03T11:12:23.567Z,98522.03
2023-02-03T11:14:54.445Z,98498.97
2023-02-03T11:17:27.565Z,98495.47
2023-02-03T11:20:14.724Z,98490.03
2023-02-03T11:22:45.561Z,98471.97
2023-02-03T11:25:27.691Z,98467.97
2023-02-03T11:28:04.883Z,98471.38
2023-02-03T11:30:34.104Z,98464.59
2023-02-03T11:33:15.573Z,98459.09
2023-02-03T11:35:59.150Z,98450.69
2023-02-03T11:38:39.412Z,98455.22
2023-02-03T11:41:18.734Z,98446.22
2023-02-03T11:43:48.393Z,98437.97
2023-02-03T11:46:17.797Z,98425.56
2023-02-03T11:49:07.596Z,98429.09
2023-02-03T11:52:00.417Z,98420.06
2023-02-03T11:55:00.020Z,98410.03
2023-02-03T11:57:44.537Z,98405.81
2023-02-03T12:00:37.129Z,98399.69
2023-02-03T12:03:35.877Z,98389.47
2023-02-03T12:06:36.164Z,98375.41
2023-02-03T12:09:36.485Z,98360.22
2023-02-03T12:12:14.440Z,98350.84
2023-02-03T12:15:03.054Z,98350.22
2023-02-03T12:17:38.327Z,98329.53
2023-02-03T12:20:46.007Z,98326.28
2023-02-03T12:23:24.818Z,98323.84
2023-02-03T12:26:18.436Z,98315.28
2023-02-03T12:29:01.292Z,98309.47
2023-02-03T12:31:55.548Z,98296.88
2023-02-03T12:34:35.549Z,98295.72
2023-02-03T12:37:22.573Z,98288.09
2023-02-03T12:40:04.724Z,98278.09
2023-02-03T12:43:00.273Z,98276.16
2023-02-03T12:45:34.839Z,98273.25
2023-02-03T12:48:15.737Z,98261.44
2023-02-03T12:51:01.569Z,98250.50
2023-02-03T12:53:41.186Z,98246.13
2023-02-03T12:56:18.363Z,98240.78
2023-02-03T12:58:55.744Z,98238.50
2023-02-03T13:01:38.764Z,98227.34
2023-02-03T13:04:25.823Z,98221.19
2023-02-03T13:07:11.989Z,98212.81
2023-02-03T13:10:01.605Z,98214.09
2023-02-03T13:12:44.014Z,98204.72
2023-02-03T13:15:37.665Z,98198.59
2023-02-03T13:18:26.675Z,98194.41
2023-02-03T13:20:56.440Z,98193.59
2023-02-03T13:23:26.759Z,98185.03
2023-02-03T13:26:04.648Z,98179.25
2023-02-03T13:28:58.653Z,98170.84
2023-02-03T13:31:40.510Z,98147.91
2023-02-03T13:34:50.155Z,98147.25
2023-02-03T13:38:15.242Z,98134.50
2023-02-03T13:41:08.361Z,98125.31
2023-02-03T13:43:49.457Z,98111.56
2023-02-03T13:46:34.052Z,98112.03
2023-02-03T13:49:07.221Z,98105.44
2023-02-03T13:51:46.153Z,98100.59
2023-02-03T13:54:30.421Z,98103.00
2023-02-03T13:57:03.394Z,98091.22
2023-02-03T13:59:38.894Z,98079.78
2023-02-03T14:02:20.200Z,98084.28
2023-02-03T14:04:55.705Z,98069.44
2023-02-03T14:07:38.347Z,98063.13
2023-02-03T14:10:13.796Z,98064.25
2023-02-03T14:12:51.934Z,98066.03
2023-02-03T14:15:23.084Z,98067.00
2023-02-03T14:17:52.272Z,98053.28
2023-02-03T14:20:27.607Z,98050.69
2023-02-03T14:23:06.000Z,98039.56
2023-02-03T14:25:45.891Z,98020.03
2023-02-03T14:28:29.721Z,98021.00
2023-02-03T14:31:12.715Z,98012.00
2023-02-03T14:33:48.259Z,97999.41
2023-02-03T14:36:44.468Z,97988.75
2023-02-03T14:39:22.580Z,97989.41
2023-02-03T14:42:35.991Z,97975.22
2023-02-03T14:45:35.001Z,97970.69
2023-02-03T14:48:25.766Z,97958.25
2023-02-03T14:51:10.217Z,97952.44
2023-02-03T14:54:20.102Z,97948.59
2023-02-03T14:57:18.397Z,97943.91
2023-02-03T14:59:58.389Z,97932.16
2023-02-03T15:02:31.244Z,97931.34
2023-02-03T15:05:32.667Z,97931.50
2023-02-03T15:08:03.435Z,97931.50
2023-02-03T15:10:46.002Z,97934.22
2023-02-03T15:13:31.888Z,97924.22
2023-02-03T15:16:04.883Z,97927.78
2023-02-03T15:18:37.663Z,97917.13
2023-02-03T15:21:18.910Z,97918.44
2023-02-03T15:23:49.501Z,97922.63
2023-02-03T15:26:25.605Z,97915.50
2023-02-03T15:29:04.604Z,97910.34
2023-02-03T15:31:49.885Z,97914.53
2023-02-03T15:34:25.056Z,97910.19
2023-02-03T15:37:00.600Z,97913.44
2023-02-03T15:39:39.337Z,97893.63
2023-02-03T15:42:26.314Z,97902.00
2023-02-03T15:45:23.988Z,97892.66
2023-02-03T15:48:06.655Z,97875.59
2023-02-03T15:50:42.007Z,97880.59
2023-02-03T15:53:45.202Z,97864.13
2023-02-03T15:56:54.836Z,97868.81
2023-02-03T15:59:36.074Z,97860.78
2023-02-03T16:02:25.792Z,97832.41
2023-02-03T16:04:55.907Z,97830.97
2023-02-03T16:07:30.643Z,97827.25
2023-02-03T16:10:00.891Z,97825.00
2023-02-03T16:12:34.456Z,97821.78
2023-02-03T16:15:04.828Z,97810.03
2023-02-03T16:17:39.215Z,97802.28
2023-02-03T16:20:11.269Z,97794.06
2023-02-03T16:23:18.726Z,97791.31
2023-02-03T16:26:13.514Z,97789.41
2023-02-03T16:29:02.068Z,97788.59
2023-02-03T16:32:04.890Z,97788.59
2023-02-03T16:34:53.187Z,97781.50
2023-02-03T16:38:02.067Z,97778.09
2023-02-03T16:40:49.919Z,97767.34
2023-02-03T16:43:38.132Z,97770.06
2023-02-03T16:46:30.870Z,97753.50
2023-02-03T16:49:19.043Z,97741.22
2023-02-03T16:51:48.599Z,97749.44
2023-02-03T16:54:18.327Z,97760.88
2023-02-03T16:56:47.565Z,97777.16
2023-02-03T16:59:16.795Z,97773.44
2023-02-03T17:01:46.012Z,97747.69
2023-02-03T17:04:15.303Z,97751.22
2023-02-03T17:06:44.490Z,97732.38
2023-02-03T17:09:13.908Z,97728.53
2023-02-03T17:11:43.096Z,97715.47
2023-02-03T17:14:12.293Z,97708.53
2023-02-03T17:16:42.019Z,97711.13
2023-02-03T17:19:12.583Z,97720.00
2023-02-03T17:21:41.953Z,97726.13
2023-02-03T17:24:12.361Z,97716.13
2023-02-03T17:26:41.591Z,97730.63
2023-02-03T17:29:10.957Z,97747.19
2023-02-03T17:31:40.193Z,97744.94
2023-02-03T17:34:09.434Z,97755.72
2023-02-03T17:36:38.717Z,97748.63
2023-02-03T17:55:34.001Z,97729.00
2023-02-03T17:58:03.979Z,97721.59
2023-02-03T18:00:33.461Z,97721.59
2023-02-03T18:03:03.021Z,97723.84
2023-02-03T18:05:32.628Z,97722.91
2023-02-03T18:08:08.931Z,97724.97
2023-02-03T18:10:45.874Z,97728.34
2023-02-03T18:13:15.167Z,97726.44
2023-02-03T18:15:44.404Z,97739.31
2023-02-03T18:18:13.621Z,97731.88
2023-02-03T18:20:42.827Z,97721.28
2023-02-03T18:23:12.010Z,97698.09
2023-02-03T18:25:41.268Z,97691.66
2023-02-03T18:28:10.605Z,97701.31
2023-02-03T18:30:39.904Z,97691.00
2023-02-03T18:33:09.207Z,97699.03
2023-02-03T18:35:39.000Z,97690.66
2023-02-03T18:38:09.381Z,97681.97
2023-02-03T18:40:38.835Z,97661.69
2023-02-03T18:43:08.363Z,97652.19
2023-02-03T18:45:39.004Z,97648.16
2023-02-03T18:48:08.361Z,97639.13
2023-02-03T18:50:41.732Z,97645.09
2023-02-03T18:53:11.307Z,97652.38
2023-02-03T18:55:44.703Z,97650.13
2023-02-03T18:58:14.164Z,97641.75
2023-02-03T19:00:43.391Z,97633.22
2023-02-03T19:03:12.565Z,97636.47
2023-02-03T19:05:41.989Z,97625.66
2023-02-03T19:08:11.311Z,97624.84
2023-02-03T19:10:40.581Z,97623.09
2023-02-03T19:13:11.099Z,97613.09
2023-02-03T19:15:42.132Z,97597.19
2023-02-03T19:18:11.364Z,97607.13
2023-02-03T19:20:43.242Z,97601.50
2023-02-03T19:23:12.591Z,97606.66
2023-02-03T19:25:41.895Z,97606.84
2023-02-03T19:28:17.737Z,97608.75
2023-02-03T19:30:53.310Z,97618.09
2023-02-03T19:33:26.600Z,97622.94
2023-02-03T19:35:55.801Z,97626.16
2023-02-03T19:38:25.129Z,97637.25
2023-02-03T19:40:54.337Z,97638.22
2023-02-03T19:43:24.765Z,97645.94
2023-02-03T19:45:54.021Z,97639.19
2023-02-03T19:48:23.295Z,97646.91
2023-02-03T19:50:52.583Z,97644.34
2023-02-03T19:53:21.908Z,97643.53
2023-02-03T19:55:51.480Z,97648.38
2023-02-03T19:58:21.137Z,97644.34
2023-02-03T20:00:50.756Z,97653.53
2023-02-03T20:03:20.014Z,97654.47
2023-02-03T20:05:52.973Z,97657.50
2023-02-03T20:08:22.279Z,97665.56
2023-02-03T20:10:52.472Z,97663.78
2023-02-03T20:13:21.856Z,97651.06
2023-02-03T20:15:51.139Z,97650.88
2023-02-03T20:18:20.828Z,97636.09
2023-02-03T20:20:55.641Z,97631.22
2023-02-03T20:23:25.617Z,97623.50
2023-02-03T20:25:55.037Z,97636.97
2023-02-03T20:28:27.322Z,97643.53
2023-02-03T20:31:01.901Z,97646.25
2023-02-03T20:33:31.638Z,97655.72
2023-02-03T20:36:00.864Z,97650.59
2023-02-03T20:38:30.117Z,97652.69
2023-02-03T20:40:59.548Z,97655.63
2023-02-03T20:43:28.934Z,97648.69
2023-02-03T20:45:58.158Z,97660.38
2023-02-03T20:48:27.577Z,97659.56
2023-02-03T20:50:56.791Z,97671.63
2023-02-03T20:53:26.768Z,97657.41
2023-02-03T20:56:01.608Z,97650.41
2023-02-03T20:58:35.132Z,97647.72
2023-02-03T21:01:20.686Z,97636.47
2023-02-03T21:04:08.298Z,97632.13
2023-02-03T21:06:37.533Z,97637.09
2023-02-03T21:09:16.291Z,97626.66
2023-02-03T21:11:45.587Z,97637.91
2023-02-03T21:14:36.301Z,97636.28
2023-02-03T21:17:20.961Z,97635.63
2023-02-03T21:19:51.372Z,97642.38
2023-02-03T21:22:23.732Z,97642.38
2023-02-03T21:24:57.180Z,97635.94
2023-02-03T21:27:30.720Z,97629.63
2023-02-03T21:30:06.074Z,97636.88
2023-02-03T21:32:40.692Z,97639.13
2023-02-03T21:35:34.986Z,97645.25
2023-02-03T21:38:32.772Z,97635.09
2023-02-03T21:41:02.200Z,97649.44
2023-02-03T21:43:33.158Z,97663.88
2023-02-03T21:46:02.632Z,97663.56
2023-02-03T21:48:40.387Z,97669.81
2023-02-03T21:51:18.957Z,97655.94
2023-02-03T21:54:01.591Z,97658.50
2023-02-03T21:56:42.794Z,97664.09
2023-02-03T21:59:21.758Z,97664.41
2023-02-03T22:01:53.145Z,97681.16
2023-02-03T22:04:24.563Z,97675.34
2023-02-03T22:06:54.342Z,97681.63
2023-02-03T22:09:26.487Z,97678.84
2023-02-03T22:11:55.728Z,97670.09
2023-02-03T22:14:24.916Z,97669.09
2023-02-03T22:16:54.149Z,97664.25
2023-02-03T22:19:23.377Z,97663.91
2023-02-03T22:21:53.340Z,97682.97
2023-02-03T22:24:22.516Z,97679.25
2023-02-03T22:26:52.812Z,97676.19
2023-02-03T22:29:23.146Z,97660.97
2023-02-03T22:31:52.457Z,97658.03
2023-02-03T22:34:23.096Z,97679.47
2023-02-03T22:36:52.270Z,97670.97
2023-02-03T22:39:21.483Z,97669.38
2023-02-03T22:41:50.665Z,97673.03
2023-02-03T22:44:20.272Z,97679.59
2023-02-03T22:46:49.482Z,97682.41
2023-02-03T22:49:18.724Z,97681.50
2023-02-03T22:51:47.944Z,97688.78
2023-02-03T22:54:17.105Z,97683.38
2023-02-03T22:56:46.381Z,97682.41
2023-02-03T22:59:15.641Z,97679.81
2023-02-03T23:01:44.818Z,97681.59
2023-02-03T23:04:14.014Z,97674.81
2023-02-03T23:06:43.258Z,97681.16
2023-02-03T23:09:12.432Z,97675.19
2023-02-03T23:11:41.612Z,97672.75
2023-02-03T23:14:11.888Z,97670.19
2023-02-03T23:16:41.087Z,97667.13
2023-02-03T23:19:10.335Z,97676.31
2023-02-03T23:21:40.564Z,97667.25
2023-02-03T23:24:09.869Z,97675.28
2023-02-03T23:26:39.102Z,97669.56
2023-02-03T23:29:08.730Z,97670.84
2023-02-03T23:31:38.055Z,97658.00
2023-02-03T23:34:25.714Z,97664.44
2023-02-03T23:36:54.917Z,97661.78
2023-02-03T23:39:24.152Z,97656.63
2023-02-03T23:41:53.387Z,97641.91
2023-02-03T23:44:23.389Z,97651.28
2023-02-03T23:46:52.602Z,97644.66
2023-02-03T23:49:21.858Z,97643.06
2023-02-03T23:51:51.014Z,97637.06
2023-02-03T23:54:20.240Z,97636.91
2023-02-03T23:56:49.569Z,97652.50
2023-02-03T23:59:19.906Z,97641.00
